createdAt,value
2022-12-30T00:01:50.220Z,3.60
2022-12-30T00:04:17.870Z,2.95
2022-12-30T00:06:48.389Z,3.10
2022-12-30T00:09:16.251Z,3.45
2022-12-30T00:11:43.908Z,2.85
2022-12-30T00:14:29.492Z,3.22
2022-12-30T00:17:15.206Z,3.15
2022-12-30T00:20:01.586Z,3.40
2022-12-30T00:22:49.411Z,3.67
2022-12-30T00:25:38.072Z,3.28
2022-12-30T00:28:30.494Z,2.80
2022-12-30T00:31:16.402Z,2.97
2022-12-30T00:33:49.472Z,2.88
2022-12-30T00:36:17.490Z,2.90
2022-12-30T00:38:46.369Z,3.55
2022-12-30T00:41:31.718Z,3.20
2022-12-30T00:43:59.303Z,3.50
2022-12-30T00:46:27.315Z,3.97
2022-12-30T00:49:12.425Z,3.65
2022-12-30T00:51:57.973Z,4.00
2022-12-30T00:54:44.759Z,3.50
2022-12-30T00:57:13.040Z,3.35
2022-12-30T00:59:40.625Z,3.97
2022-12-30T01:02:08.385Z,3.58
2022-12-30T01:04:36.202Z,3.97
2022-12-30T01:07:03.903Z,3.75
2022-12-30T01:09:35.976Z,4.60
2022-12-30T01:12:12.477Z,3.85
2022-12-30T01:14:42.632Z,4.53
2022-12-30T01:17:12.396Z,5.13
2022-12-30T01:19:40.664Z,4.10
2022-12-30T01:22:09.583Z,4.45
2022-12-30T01:24:38.693Z,4.55
2022-12-30T01:27:07.123Z,5.18
2022-12-30T01:29:37.512Z,4.18
2022-12-30T01:32:06.970Z,4.00
2022-12-30T01:34:35.296Z,4.10
2022-12-30T01:37:03.205Z,4.45
2022-12-30T01:39:30.808Z,3.88
2022-12-30T01:41:59.837Z,4.25
2022-12-30T01:44:57.343Z,4.05
2022-12-30T01:47:29.945Z,4.47
2022-12-30T01:50:01.950Z,4.68
2022-12-30T01:52:29.624Z,3.40
2022-12-30T01:55:03.497Z,3.58
2022-12-30T01:57:33.414Z,3.65
2022-12-30T02:00:03.916Z,2.65
2022-12-30T02:02:40.543Z,4.05
2022-12-30T02:05:09.702Z,3.70
2022-12-30T02:07:40.825Z,3.70
2022-12-30T02:10:09.241Z,4.53
2022-12-30T02:12:38.332Z,4.15
2022-12-30T02:15:07.390Z,3.78
2022-12-30T02:17:43.063Z,3.35
2022-12-30T02:20:52.877Z,3.13
2022-12-30T02:23:36.575Z,3.30
2022-12-30T02:26:37.735Z,3.45
2022-12-30T02:29:28.195Z,4.03
2022-12-30T02:32:05.270Z,3.13
2022-12-30T02:34:38.629Z,4.05
2022-12-30T02:37:15.668Z,3.53
2022-12-30T02:39:47.606Z,2.97
2022-12-30T02:42:37.148Z,4.40
2022-12-30T02:45:07.751Z,4.07
2022-12-30T02:47:41.495Z,3.13
2022-12-30T02:50:31.613Z,3.95
2022-12-30T02:53:00.713Z,3.55
2022-12-30T02:55:28.280Z,3.15
2022-12-30T02:57:55.837Z,3.42
2022-12-30T03:00:52.035Z,3.50
2022-12-30T03:03:59.100Z,3.50
2022-12-30T03:06:54.266Z,3.63
2022-12-30T03:09:34.012Z,3.40
2022-12-30T03:12:10.108Z,3.67
2022-12-30T03:14:42.329Z,3.03
2022-12-30T03:17:15.300Z,3.53
2022-12-30T03:19:49.714Z,3.38
2022-12-30T03:22:33.145Z,3.63
2022-12-30T03:25:21.379Z,3.10
2022-12-30T03:27:51.062Z,3.70
2022-12-30T03:30:19.611Z,3.40
2022-12-30T03:32:47.869Z,2.92
2022-12-30T03:35:17.340Z,3.38
2022-12-30T03:37:50.037Z,3.40
2022-12-30T03:40:22.139Z,3.38
2022-12-30T03:42:52.663Z,3.38
2022-12-30T03:45:20.823Z,3.33
2022-12-30T03:47:48.555Z,4.00
2022-12-30T03:50:17.566Z,3.92
2022-12-30T03:52:45.240Z,3.30
2022-12-30T03:55:12.923Z,3.28
2022-12-30T03:57:42.167Z,3.47
2022-12-30T04:00:11.187Z,3.75
2022-12-30T04:02:41.857Z,3.17
2022-12-30T04:05:10.758Z,3.53
2022-12-30T04:07:40.059Z,3.40
2022-12-30T04:10:08.442Z,3.58
2022-12-30T04:12:36.194Z,2.83
2022-12-30T04:15:04.142Z,3.05
2022-12-30T04:17:31.811Z,3.53
2022-12-30T04:19:59.610Z,3.17
2022-12-30T04:22:27.324Z,3.42
2022-12-30T04:24:58.080Z,3.35
2022-12-30T04:27:25.917Z,3.33
2022-12-30T04:29:53.648Z,2.83
2022-12-30T04:32:21.354Z,2.95
2022-12-30T04:34:48.949Z,3.60
2022-12-30T04:37:16.611Z,3.70
2022-12-30T04:39:47.038Z,3.55
2022-12-30T04:42:16.150Z,3.65
2022-12-30T04:44:43.840Z,4.10
2022-12-30T04:47:11.684Z,3.25
2022-12-30T04:49:39.382Z,3.58
2022-12-30T04:52:07.116Z,3.83
2022-12-30T04:54:34.886Z,3.53
2022-12-30T04:57:02.517Z,3.40
2022-12-30T04:59:31.428Z,3.25
2022-12-30T05:01:59.473Z,3.30
2022-12-30T05:04:27.166Z,4.15
2022-12-30T05:06:54.937Z,2.85
2022-12-30T05:09:22.706Z,3.75
2022-12-30T05:11:50.560Z,3.15
2022-12-30T05:14:18.189Z,2.83
2022-12-30T05:16:47.054Z,3.70
2022-12-30T05:19:15.103Z,3.38
2022-12-30T05:21:43.027Z,3.28
2022-12-30T05:24:29.160Z,3.28
2022-12-30T05:26:57.115Z,4.07
2022-12-30T05:29:24.642Z,3.63
2022-12-30T05:31:53.606Z,4.68
2022-12-30T05:34:21.210Z,4.35
2022-12-30T05:36:48.735Z,4.78
2022-12-30T05:39:16.456Z,4.50
2022-12-30T05:41:44.098Z,4.05
2022-12-30T05:44:11.708Z,3.58
2022-12-30T05:46:39.314Z,3.85
2022-12-30T05:49:08.246Z,4.50
2022-12-30T05:51:35.885Z,4.43
2022-12-30T05:54:03.529Z,3.78
2022-12-30T05:56:31.235Z,4.30
2022-12-30T05:58:58.883Z,4.25
2022-12-30T06:01:26.659Z,3.65
2022-12-30T06:03:56.065Z,4.38
2022-12-30T06:06:25.634Z,4.45
2022-12-30T06:08:53.269Z,3.78
2022-12-30T06:11:20.938Z,3.70
2022-12-30T06:13:48.631Z,3.72
2022-12-30T06:16:16.304Z,3.47
2022-12-30T06:18:43.971Z,3.95
2022-12-30T06:21:11.618Z,4.10
2022-12-30T06:23:40.545Z,4.55
2022-12-30T06:26:08.144Z,4.25
2022-12-30T06:28:35.697Z,6.72
2022-12-30T06:31:03.515Z,4.78
2022-12-30T06:33:31.271Z,4.00
2022-12-30T06:35:59.027Z,4.03
2022-12-30T06:38:26.775Z,4.75
2022-12-30T06:40:55.953Z,4.15
2022-12-30T06:43:23.603Z,4.80
2022-12-30T06:45:51.289Z,5.13
2022-12-30T06:48:19.004Z,5.32
2022-12-30T06:50:46.652Z,4.35
2022-12-30T06:53:14.370Z,4.47
2022-12-30T06:55:42.029Z,5.13
2022-12-30T06:58:11.005Z,4.30
2022-12-30T07:00:38.580Z,4.60
2022-12-30T07:03:06.171Z,4.50
2022-12-30T07:05:33.868Z,4.75
2022-12-30T07:08:01.513Z,4.93
2022-12-30T07:10:29.373Z,7.03
2022-12-30T07:12:57.032Z,4.15
2022-12-30T07:15:26.174Z,4.10
2022-12-30T07:17:53.814Z,4.50
2022-12-30T07:20:21.440Z,3.70
2022-12-30T07:22:54.350Z,3.92
2022-12-30T07:25:25.237Z,3.78
2022-12-30T07:27:58.447Z,4.57
2022-12-30T07:30:27.877Z,4.78
2022-12-30T07:32:55.766Z,4.45
2022-12-30T07:35:23.524Z,4.90
2022-12-30T07:37:51.246Z,4.93
2022-12-30T07:40:19.341Z,4.18
2022-12-30T07:42:50.327Z,4.20
2022-12-30T07:45:18.870Z,3.92
2022-12-30T07:47:47.915Z,3.47
2022-12-30T07:50:18.184Z,4.15
2022-12-30T07:52:45.832Z,4.30
2022-12-30T07:55:13.480Z,4.53
2022-12-30T07:57:44.179Z,4.15
2022-12-30T08:00:14.945Z,4.18
2022-12-30T08:02:42.874Z,4.18
2022-12-30T08:05:12.363Z,3.58
2022-12-30T08:07:40.120Z,4.13
2022-12-30T08:10:08.737Z,4.05
2022-12-30T08:12:36.767Z,3.47
2022-12-30T08:15:05.351Z,3.85
2022-12-30T08:17:33.001Z,3.47
2022-12-30T08:20:00.633Z,3.20
2022-12-30T08:22:29.577Z,3.47
2022-12-30T08:24:57.588Z,3.85
2022-12-30T08:27:25.250Z,4.20
2022-12-30T08:29:52.862Z,5.47
2022-12-30T08:32:20.424Z,4.28
2022-12-30T08:34:47.994Z,4.55
2022-12-30T08:37:15.658Z,5.75
2022-12-30T08:39:44.723Z,5.00
2022-12-30T08:42:12.353Z,4.30
2022-12-30T08:44:39.948Z,5.93
2022-12-30T08:47:07.649Z,3.50
2022-12-30T08:49:35.280Z,6.90
2022-12-30T08:52:03.767Z,4.68
2022-12-30T08:54:31.309Z,4.10
2022-12-30T08:57:00.278Z,5.10
2022-12-30T08:59:27.987Z,5.38
2022-12-30T09:01:55.754Z,3.97
2022-12-30T09:04:23.453Z,4.50
2022-12-30T09:06:51.112Z,5.05
2022-12-30T09:09:18.717Z,3.35
2022-12-30T09:11:46.596Z,4.20
2022-12-30T09:14:16.610Z,3.97
2022-12-30T09:16:44.318Z,5.00
2022-12-30T09:19:18.518Z,3.30
2022-12-30T09:21:49.012Z,3.05
2022-12-30T09:24:16.671Z,3.95
2022-12-30T09:26:44.427Z,3.10
2022-12-30T09:29:13.324Z,2.90
2022-12-30T09:31:42.322Z,3.30
2022-12-30T09:34:09.965Z,4.32
2022-12-30T09:36:37.737Z,3.08
2022-12-30T09:39:05.377Z,2.95
2022-12-30T09:42:01.723Z,4.75
2022-12-30T09:44:42.623Z,3.50
2022-12-30T09:47:23.767Z,4.43
2022-12-30T09:50:04.429Z,3.00
2022-12-30T09:52:37.055Z,3.10
2022-12-30T09:55:11.539Z,4.30
2022-12-30T09:57:39.833Z,3.63
2022-12-30T10:00:13.743Z,3.53
2022-12-30T10:02:53.805Z,2.13
2022-12-30T10:05:35.154Z,4.50
2022-12-30T10:08:11.608Z,3.45
2022-12-30T10:10:48.702Z,2.20
2022-12-30T10:13:21.818Z,3.08
2022-12-30T10:16:00.556Z,2.92
2022-12-30T10:18:59.044Z,2.97
2022-12-30T10:21:36.201Z,3.40
2022-12-30T10:24:16.281Z,2.65
2022-12-30T10:26:48.076Z,4.00
2022-12-30T10:29:18.942Z,2.95
2022-12-30T10:31:47.922Z,2.33
2022-12-30T10:34:19.698Z,2.97
2022-12-30T10:36:54.727Z,3.10
2022-12-30T10:39:24.359Z,2.45
2022-12-30T10:42:06.638Z,2.20
2022-12-30T10:44:49.260Z,3.33
2022-12-30T10:47:28.158Z,2.70
2022-12-30T10:50:15.129Z,2.30
2022-12-30T10:52:43.013Z,2.67
2022-12-30T10:55:23.510Z,2.28
2022-12-30T10:57:53.818Z,2.65
2022-12-30T11:00:22.723Z,4.43
2022-12-30T11:02:57.075Z,2.60
2022-12-30T11:05:33.388Z,2.78
2022-12-30T11:08:02.552Z,2.20
2022-12-30T11:10:30.459Z,2.65
2022-12-30T11:13:26.166Z,2.20
2022-12-30T11:15:56.070Z,1.80
2022-12-30T11:18:29.119Z,2.83
2022-12-30T11:20:59.583Z,2.97
2022-12-30T11:23:31.921Z,2.03
2022-12-30T11:26:01.274Z,3.17
2022-12-30T11:28:33.414Z,1.92
2022-12-30T11:31:05.229Z,2.05
2022-12-30T11:33:36.084Z,3.10
2022-12-30T11:36:19.256Z,2.17
2022-12-30T11:38:48.191Z,2.17
2022-12-30T11:41:26.007Z,3.25
2022-12-30T11:44:07.677Z,2.25
2022-12-30T11:46:38.572Z,2.55
2022-12-30T11:49:20.820Z,2.25
2022-12-30T11:51:51.827Z,3.00
2022-12-30T11:54:23.621Z,1.95
2022-12-30T11:56:57.777Z,2.00
2022-12-30T11:59:27.885Z,2.35
2022-12-30T12:01:58.780Z,2.22
2022-12-30T12:04:47.725Z,2.13
2022-12-30T12:07:26.471Z,1.60
2022-12-30T12:10:01.531Z,1.67
2022-12-30T12:12:37.047Z,1.73
2022-12-30T12:15:14.827Z,1.80
2022-12-30T12:17:49.020Z,1.63
2022-12-30T12:20:25.979Z,1.95
2022-12-30T12:23:19.729Z,2.05
2022-12-30T12:26:03.558Z,1.70
2022-12-30T12:28:32.539Z,1.60
2022-12-30T12:31:18.724Z,1.60
2022-12-30T12:33:54.427Z,1.40
2022-12-30T12:36:32.103Z,1.90
2022-12-30T12:39:04.813Z,1.92
2022-12-30T12:41:53.351Z,1.50
2022-12-30T12:44:51.705Z,1.60
2022-12-30T12:47:36.868Z,1.60
2022-12-30T12:50:17.811Z,1.60
2022-12-30T12:53:04.828Z,1.40
2022-12-30T12:56:00.390Z,1.20
2022-12-30T12:58:42.775Z,1.67
2022-12-30T13:01:18.194Z,1.55
2022-12-30T13:04:06.054Z,1.60
2022-12-30T13:06:42.665Z,1.60
2022-12-30T13:09:26.692Z,1.60
2022-12-30T13:12:05.362Z,1.55
2022-12-30T13:14:38.562Z,1.20
2022-12-30T13:17:14.826Z,1.38
2022-12-30T13:19:54.371Z,1.60
2022-12-30T13:22:30.561Z,1.55
2022-12-30T13:25:00.530Z,1.65
2022-12-30T13:27:31.212Z,2.80
2022-12-30T13:30:00.894Z,3.45
2022-12-30T13:32:38.001Z,3.70
2022-12-30T13:35:31.596Z,3.03
2022-12-30T13:38:08.067Z,2.05
2022-12-30T13:40:47.014Z,2.05
2022-12-30T13:43:28.803Z,2.00
2022-12-30T13:45:58.976Z,2.28
2022-12-30T13:48:29.436Z,2.60
2022-12-30T13:51:04.665Z,1.67
2022-12-30T13:53:40.269Z,2.15
2022-12-30T13:56:09.725Z,1.38
2022-12-30T13:58:40.533Z,1.50
2022-12-30T14:01:29.309Z,1.42
2022-12-30T14:04:37.083Z,1.30
2022-12-30T14:07:04.769Z,1.83
2022-12-30T14:09:33.530Z,1.90
2022-12-30T14:12:34.930Z,1.98
2022-12-30T14:15:44.614Z,2.50
2022-12-30T14:18:20.222Z,1.60
2022-12-30T14:20:56.005Z,1.77
2022-12-30T14:23:41.628Z,1.65
2022-12-30T14:26:37.489Z,1.58
2022-12-30T14:29:17.033Z,1.38
2022-12-30T14:31:48.458Z,1.38
2022-12-30T14:34:28.400Z,1.77
2022-12-30T14:37:05.481Z,1.88
2022-12-30T14:39:34.370Z,1.25
2022-12-30T14:42:04.996Z,1.38
2022-12-30T14:44:35.485Z,1.90
2022-12-30T14:47:06.801Z,1.65
2022-12-30T14:49:42.525Z,1.90
2022-12-30T14:52:21.340Z,1.10
2022-12-30T14:54:53.609Z,1.33
2022-12-30T14:57:24.302Z,1.67
2022-12-30T14:59:56.362Z,1.80
2022-12-30T15:02:26.596Z,1.80
2022-12-30T15:05:09.062Z,1.67
2022-12-30T15:07:37.529Z,1.40
2022-12-30T15:10:06.675Z,1.58
2022-12-30T15:12:34.640Z,1.83
2022-12-30T15:15:02.515Z,1.25
2022-12-30T15:17:33.302Z,1.75
2022-12-30T15:20:19.414Z,1.50
2022-12-30T15:22:46.995Z,1.75
2022-12-30T15:25:18.611Z,2.13
2022-12-30T15:27:50.722Z,2.47
2022-12-30T15:30:18.945Z,2.05
2022-12-30T15:32:56.691Z,2.00
2022-12-30T15:35:29.513Z,2.08
2022-12-30T15:38:01.477Z,2.25
2022-12-30T15:40:32.265Z,2.55
2022-12-30T15:43:04.100Z,3.50
2022-12-30T15:45:37.208Z,2.10
2022-12-30T15:48:21.157Z,7.53
2022-12-30T15:50:54.592Z,3.72
2022-12-30T15:53:25.536Z,2.58
2022-12-30T15:55:54.153Z,2.88
2022-12-30T15:58:32.298Z,2.22
2022-12-30T16:01:04.879Z,1.85
2022-12-30T16:03:33.293Z,1.67
2022-12-30T16:06:03.347Z,1.88
2022-12-30T16:08:43.431Z,3.60
2022-12-30T16:11:14.836Z,3.95
2022-12-30T16:13:50.446Z,2.50
2022-12-30T16:16:27.880Z,1.60
2022-12-30T16:19:13.052Z,2.10
2022-12-30T16:21:50.920Z,1.80
2022-12-30T16:24:31.992Z,1.83
2022-12-30T16:27:05.030Z,1.55
2022-12-30T16:29:35.133Z,1.80
2022-12-30T16:32:02.899Z,1.38
2022-12-30T16:34:30.548Z,2.17
2022-12-30T16:37:30.711Z,1.88
2022-12-30T16:39:47.826Z,2.20
2022-12-30T16:42:25.600Z,1.73
2022-12-30T16:44:53.213Z,2.30
2022-12-30T16:47:23.408Z,2.15
2022-12-30T16:49:51.115Z,2.35
2022-12-30T16:52:25.001Z,2.80
2022-12-30T16:54:52.662Z,2.03
2022-12-30T16:57:20.693Z,1.60
2022-12-30T17:00:22.357Z,1.77
2022-12-30T17:02:36.301Z,1.23
2022-12-30T17:05:04.357Z,1.50
2022-12-30T17:07:34.616Z,1.40
2022-12-30T17:10:19.723Z,1.20
2022-12-30T17:12:49.776Z,1.40
2022-12-30T17:15:17.462Z,1.98
2022-12-30T17:17:49.951Z,2.03
2022-12-30T17:20:18.307Z,1.83
2022-12-30T17:22:47.332Z,2.38
2022-12-30T17:25:17.826Z,1.95
2022-12-30T17:27:45.734Z,1.80
2022-12-30T17:30:14.587Z,1.67
2022-12-30T17:32:44.170Z,1.90
2022-12-30T17:35:26.183Z,2.20
2022-12-30T17:37:56.177Z,2.05
2022-12-30T17:40:24.058Z,2.30
2022-12-30T17:42:51.700Z,2.70
2022-12-30T17:45:19.376Z,2.50
2022-12-30T17:47:49.538Z,2.45
2022-12-30T17:50:18.929Z,1.92
2022-12-30T17:52:46.584Z,1.90
2022-12-30T17:55:15.980Z,2.00
2022-12-30T17:57:44.110Z,1.15
2022-12-30T18:00:14.266Z,1.80
2022-12-30T18:02:42.710Z,2.67
2022-12-30T18:05:14.354Z,2.85
2022-12-30T18:07:42.265Z,1.67
2022-12-30T18:10:10.360Z,1.92
2022-12-30T18:12:39.576Z,1.38
2022-12-30T18:15:08.249Z,2.60
2022-12-30T18:17:36.193Z,1.80
2022-12-30T18:20:04.537Z,2.63
2022-12-30T18:22:32.187Z,1.80
2022-12-30T18:24:59.818Z,2.60
2022-12-30T18:27:27.820Z,2.53
2022-12-30T18:29:56.706Z,1.70
2022-12-30T18:32:24.351Z,2.20
2022-12-30T18:34:52.069Z,2.85
2022-12-30T18:37:19.717Z,2.65
2022-12-30T18:39:47.407Z,1.90
2022-12-30T18:42:14.989Z,2.80
2022-12-30T18:44:42.571Z,1.80
2022-12-30T18:47:11.481Z,1.83
2022-12-30T18:49:39.074Z,1.75
2022-12-30T18:52:06.637Z,2.17
2022-12-30T18:54:34.210Z,2.33
2022-12-30T18:57:02.408Z,1.98
2022-12-30T18:59:30.055Z,2.25
2022-12-30T19:01:57.785Z,1.98
2022-12-30T19:04:26.869Z,3.33
2022-12-30T19:06:54.427Z,2.00
2022-12-30T19:09:23.975Z,2.03
2022-12-30T19:11:52.229Z,2.17
2022-12-30T19:14:21.076Z,2.00
2022-12-30T19:16:52.315Z,2.85
2022-12-30T19:19:20.921Z,2.70
2022-12-30T19:21:50.224Z,2.20
2022-12-30T19:24:20.522Z,1.80
2022-12-30T19:26:48.762Z,2.47
2022-12-30T19:29:17.244Z,1.63
2022-12-30T19:31:44.889Z,2.05
2022-12-30T19:34:15.633Z,1.77
2022-12-30T19:36:43.870Z,1.80
2022-12-30T19:39:15.314Z,1.50
2022-12-30T19:41:44.403Z,1.52
2022-12-30T19:44:14.013Z,2.10
2022-12-30T19:46:42.365Z,2.05
2022-12-30T19:49:13.860Z,2.08
2022-12-30T19:51:41.761Z,2.55
2022-12-30T19:54:11.594Z,2.30
2022-12-30T19:56:40.937Z,2.55
2022-12-30T19:59:08.799Z,2.15
2022-12-30T20:01:37.865Z,2.10
2022-12-30T20:04:08.020Z,2.30
2022-12-30T20:06:37.619Z,2.25
2022-12-30T20:09:06.589Z,3.25
2022-12-30T20:11:38.698Z,2.88
2022-12-30T20:14:11.950Z,2.15
2022-12-30T20:16:42.498Z,1.95
2022-12-30T20:19:15.985Z,2.60
2022-12-30T20:21:47.485Z,2.10
2022-12-30T20:24:21.973Z,2.00
2022-12-30T20:26:49.702Z,1.83
2022-12-30T20:29:18.829Z,1.88
2022-12-30T20:31:48.721Z,1.77
2022-12-30T20:34:17.644Z,2.00
2022-12-30T20:36:45.525Z,1.73
2022-12-30T20:39:15.114Z,1.63
2022-12-30T20:41:43.079Z,1.80
2022-12-30T20:44:13.070Z,1.70
2022-12-30T20:46:42.509Z,1.73
2022-12-30T20:49:10.272Z,2.00
2022-12-30T20:51:38.522Z,1.95
2022-12-30T20:54:06.193Z,2.10
2022-12-30T20:56:34.164Z,1.90
2022-12-30T20:59:05.244Z,1.90
2022-12-30T21:01:35.402Z,1.90
2022-12-30T21:04:06.703Z,2.10
2022-12-30T21:06:35.241Z,2.05
2022-12-30T21:09:04.247Z,2.55
2022-12-30T21:11:32.309Z,2.63
2022-12-30T21:14:00.370Z,2.58
2022-12-30T21:16:33.439Z,3.20
2022-12-30T21:19:01.533Z,3.70
2022-12-30T21:21:30.793Z,4.80
2022-12-30T21:23:58.499Z,3.70
2022-12-30T21:26:28.766Z,2.95
2022-12-30T21:28:58.673Z,3.33
2022-12-30T21:31:28.354Z,3.30
2022-12-30T21:33:58.867Z,3.17
2022-12-30T21:36:28.314Z,3.03
2022-12-30T21:39:15.010Z,3.75
2022-12-30T21:42:00.676Z,3.88
2022-12-30T21:44:54.225Z,4.22
2022-12-30T21:47:42.073Z,4.50
2022-12-30T21:50:40.437Z,3.75
2022-12-30T21:53:45.621Z,4.50
2022-12-30T21:56:39.676Z,4.97
2022-12-30T21:59:36.704Z,4.57
2022-12-30T22:02:34.632Z,4.53
2022-12-30T22:05:02.385Z,4.72
2022-12-30T22:07:30.038Z,4.68
2022-12-30T22:09:57.685Z,4.60
2022-12-30T22:12:26.966Z,4.55
2022-12-30T22:14:55.083Z,5.40
2022-12-30T22:17:22.859Z,5.32
2022-12-30T22:19:50.455Z,5.20
2022-12-30T22:22:18.104Z,5.70
2022-12-30T22:24:46.347Z,5.35
2022-12-30T22:27:16.904Z,5.03
2022-12-30T22:29:48.188Z,5.72
2022-12-30T22:32:15.780Z,5.60
2022-12-30T22:34:43.577Z,5.78
2022-12-30T22:37:11.181Z,5.53
2022-12-30T22:39:38.883Z,6.25
2022-12-30T22:42:06.710Z,6.97
2022-12-30T22:44:34.462Z,7.50
2022-12-30T22:47:03.436Z,9.20
2022-12-30T22:49:31.118Z,7.43
2022-12-30T22:51:58.788Z,6.57
2022-12-30T22:54:26.517Z,6.45
2022-12-30T22:56:54.388Z,7.05
2022-12-30T22:59:22.151Z,6.15
2022-12-30T23:01:49.944Z,7.07
2022-12-30T23:04:19.186Z,6.50
2022-12-30T23:06:46.942Z,6.68
2022-12-30T23:09:16.801Z,6.90
2022-12-30T23:11:44.354Z,6.57
2022-12-30T23:14:29.918Z,6.45
2022-12-30T23:16:59.883Z,6.25
2022-12-30T23:19:28.944Z,5.93
2022-12-30T23:21:56.548Z,25.88
2022-12-30T23:24:42.158Z,11.35
2022-12-30T23:27:09.973Z,5.88
2022-12-30T23:29:37.753Z,5.82
2022-12-30T23:32:05.641Z,6.25
2022-12-30T23:34:34.672Z,6.53
2022-12-30T23:37:02.282Z,6.32
2022-12-30T23:39:30.050Z,6.95
2022-12-30T23:41:57.608Z,6.10
2022-12-30T23:44:25.451Z,5.90
2022-12-30T23:46:53.070Z,6.65
2022-12-30T23:49:21.700Z,6.75
2022-12-30T23:51:50.674Z,7.55
2022-12-30T23:54:18.837Z,6.72
2022-12-30T23:56:46.365Z,6.82
2022-12-30T23:59:13.996Z,6.05
